Time;durP1;ratioP1;P1;durP2;ratioP2;P2;SDS_P1;SDS_P2;PMS_P1;PMS_P2;Temp;Humidity;BMP_temperature;BMP_pressure;BME280_temperature;BME280_humidity;BME280_pressure;Samples;Min_cycle;Max_cycle;Signal;HPM_P1;HPM_P2
2024/01/08 00:00:24;;;;;;;0.70;0.70;;;;;;;-3.04;90.57;97160.19;29373;203;63004;-58
2024/01/08 00:00:56;;;;;;;0.70;0.70;;;;;;;-3.03;90.79;97156.50;29373;222;63009;-57
2024/01/08 00:01:27;;;;;;;0.70;0.70;;;;;;;-3.05;89.88;97155.91;29371;220;64008;-57
2024/01/08 00:01:58;;;;;;;0.70;0.70;;;;;;;-3.03;90.48;97161.81;29373;250;63009;-57
2024/01/08 00:02:29;;;;;;;0.70;0.70;;;;;;;-3.01;90.79;97161.62;29373;213;63005;-57
2024/01/08 00:03:02;;;;;;;0.70;0.70;;;;;;;-3.01;90.73;97167.75;29371;204;64014;-57
2024/01/08 00:03:37;;;;;;;0.70;0.70;;;;;;;-3.01;90.17;97165.09;29373;218;63005;-57
2024/01/08 00:04:09;;;;;;;0.70;0.70;;;;;;;-3.04;89.22;97160.19;29373;235;63009;-56
2024/01/08 00:04:42;;;;;;;0.80;0.80;;;;;;;-3.03;89.75;97161.81;29373;196;63005;-57
2024/01/08 00:05:13;;;;;;;0.70;0.70;;;;;;;-2.97;90.52;97166.34;29373;253;63009;-57
2024/01/08 00:05:45;;;;;;;0.70;0.70;;;;;;;-2.96;89.62;97165.31;29373;211;63005;-57
2024/01/08 00:06:18;;;;;;;0.70;0.70;;;;;;;-2.95;89.49;97163.47;29373;212;63020;-57
2024/01/08 00:06:50;;;;;;;0.70;0.70;;;;;;;-2.98;88.30;97164.69;29373;198;63004;-57
2024/01/08 00:07:22;;;;;;;0.70;0.70;;;;;;;-3.02;86.69;97152.84;29373;262;63009;-58
2024/01/08 00:07:53;;;;;;;0.80;0.80;;;;;;;-3.07;86.19;97155.28;29374;262;63004;-56
2024/01/08 00:08:24;;;;;;;0.70;0.70;;;;;;;-3.09;87.40;97150.16;29371;202;64013;-57
2024/01/08 00:08:55;;;;;;;0.70;0.70;;;;;;;-3.12;87.43;97155.09;29373;223;63004;-56
2024/01/08 00:09:28;;;;;;;0.70;0.70;;;;;;;-3.12;88.29;97163.84;29373;203;63009;-57
2024/01/08 00:09:59;;;;;;;3.35;3.25;;;;;;;-3.10;89.14;97167.09;29373;220;63005;-57
2024/01/08 00:10:30;;;;;;;0.70;0.70;;;;;;;-3.07;89.94;97163.25;29373;225;63009;-57
2024/01/08 00:11:01;;;;;;;0.70;0.70;;;;;;;-3.05;90.08;97169.16;29373;238;63005;-57
2024/01/08 00:11:33;;;;;;;0.80;0.80;;;;;;;-3.05;90.45;97169.16;29373;238;63009;-57
2024/01/08 00:12:05;;;;;;;0.70;0.70;;;;;;;-3.07;88.93;97165.91;29373;199;63005;-58
2024/01/08 00:12:36;;;;;;;0.80;0.80;;;;;;;-3.05;90.24;97166.50;29373;214;63009;-57
2024/01/08 00:13:08;;;;;;;0.80;0.80;;;;;;;-3.06;89.97;97156.91;29371;228;64009;-57
2024/01/08 00:13:40;;;;;;;0.70;0.70;;;;;;;-3.04;89.71;97157.53;29373;226;63009;-57
2024/01/08 00:14:12;;;;;;;0.70;0.70;;;;;;;-3.01;89.47;97157.13;29371;212;64009;-57
2024/01/08 00:14:43;;;;;;;0.70;0.70;;;;;;;-2.93;89.64;97164.91;29373;225;63009;-56
2024/01/08 00:15:15;;;;;;;0.80;0.80;;;;;;;-2.86;88.73;97155.12;29373;198;63004;-56
2024/01/08 00:15:46;;;;;;;0.70;0.70;;;;;;;-2.85;88.59;97156.78;29373;197;63009;-57
2024/01/08 00:16:17;;;;;;;0.70;0.70;;;;;;;-2.86;88.66;97157.78;29371;216;64008;-57
2024/01/08 00:16:48;;;;;;;0.70;0.70;;;;;;;-2.90;87.82;97161.88;29373;227;63008;-57
2024/01/08 00:17:20;;;;;;;0.70;0.70;;;;;;;-2.92;88.12;97157.78;29373;211;63005;-57
2024/01/08 00:17:51;;;;;;;1.02;1.02;;;;;;;-2.85;88.06;97153.31;29373;241;63026;-58
2024/01/08 00:18:22;;;;;;;0.70;0.70;;;;;;;-2.85;87.62;97151.47;29373;256;63005;-57
2024/01/08 00:18:54;;;;;;;0.70;0.70;;;;;;;-2.89;86.73;97154.72;29373;227;63009;-57
2024/01/08 00:19:25;;;;;;;0.70;0.70;;;;;;;-2.91;87.30;97162.88;29373;212;63005;-56
2024/01/08 00:19:56;;;;;;;0.70;0.70;;;;;;;-2.90;87.79;97156.56;29371;211;64004;-57
2024/01/08 00:20:27;;;;;;;0.70;0.70;;;;;;;-2.90;87.83;97161.88;29373;216;63009;-57
2024/01/08 00:20:59;;;;;;;0.70;0.70;;;;;;;-2.91;88.00;97157.56;29373;226;63009;-56
2024/01/08 00:21:30;;;;;;;0.70;0.70;;;;;;;-2.90;87.42;97161.88;29373;292;63004;-57
2024/01/08 00:22:02;;;;;;;0.80;0.80;;;;;;;-2.87;85.94;97158.81;29373;202;63009;-57
2024/01/08 00:22:33;;;;;;;1.23;1.12;;;;;;;-2.88;84.55;97151.88;29373;222;63004;-57
2024/01/08 00:23:05;;;;;;;0.70;0.70;;;;;;;-2.89;85.04;97149.41;29373;226;63008;-56
2024/01/08 00:23:37;;;;;;;0.70;0.70;;;;;;;-2.94;84.78;97150.00;29373;221;63004;-57
2024/01/08 00:24:08;;;;;;;0.70;0.70;;;;;;;-2.96;85.61;97156.53;29373;220;63008;-57
2024/01/08 00:24:42;;;;;;;0.70;0.70;;;;;;;-2.99;86.11;97157.75;29373;223;63005;-56
2024/01/08 00:25:13;;;;;;;0.70;0.70;;;;;;;-3.01;86.24;97151.81;29371;202;64014;-57
2024/01/08 00:25:45;;;;;;;0.70;0.70;;;;;;;-3.07;84.58;97157.94;29373;221;63005;-56
2024/01/08 00:26:16;;;;;;;0.70;0.70;;;;;;;-3.11;84.53;97156.69;29371;243;64013;-57
2024/01/08 00:26:47;;;;;;;0.70;0.70;;;;;;;-3.08;85.34;97153.62;29373;261;63005;-57
2024/01/08 00:27:19;;;;;;;0.70;0.70;;;;;;;-3.07;86.79;97156.09;29373;216;63009;-57
2024/01/08 00:27:50;;;;;;;0.70;0.70;;;;;;;-3.08;86.09;97158.94;29373;281;63005;-57
2024/01/08 00:28:21;;;;;;;0.70;0.70;;;;;;;-3.08;85.97;97159.75;29373;202;63024;-57
2024/01/08 00:28:56;;;;;;;0.75;0.75;;;;;;;-3.07;86.46;97155.28;29373;246;63004;-56
2024/01/08 00:29:27;;;;;;;0.70;0.70;;;;;;;-2.98;86.68;97164.69;29371;227;64013;-57
2024/01/08 00:29:59;;;;;;;0.80;0.80;;;;;;;-2.95;85.38;97155.50;29373;211;63004;-57
2024/01/08 00:30:31;;;;;;;0.70;0.70;;;;;;;-2.95;84.22;97153.69;29373;269;63008;-57
2024/01/08 00:31:04;;;;;;;0.70;0.70;;;;;;;-2.89;85.11;97157.37;29373;202;63004;-57
2024/01/08 00:31:35;;;;;;;0.80;0.80;;;;;;;-2.87;84.79;97150.84;29373;279;63009;-57
2024/01/08 00:32:06;;;;;;;0.80;0.80;;;;;;;-2.87;84.71;97150.03;29371;199;64009;-57
2024/01/08 00:32:38;;;;;;;0.70;0.70;;;;;;;-2.87;85.21;97155.34;29373;199;63009;-57
2024/01/08 00:33:12;;;;;;;0.70;0.70;;;;;;;-2.92;85.16;97152.47;29373;203;63005;-57
2024/01/08 00:33:44;;;;;;;0.70;0.70;;;;;;;-2.99;84.60;97152.44;29373;241;63009;-56
2024/01/08 00:34:15;;;;;;;0.70;0.70;;;;;;;-3.02;84.97;97152.84;29373;228;63005;-57
2024/01/08 00:34:46;;;;;;;0.70;0.70;;;;;;;-3.04;85.94;97157.53;29373;234;63009;-57
2024/01/08 00:35:17;;;;;;;0.70;0.70;;;;;;;-3.04;86.61;97161.00;29373;247;63000;-56
2024/01/08 00:35:50;;;;;;;0.80;0.80;;;;;;;-3.03;86.87;97156.50;29373;199;63009;-58
2024/01/08 00:36:22;;;;;;;0.70;0.70;;;;;;;-3.03;87.52;97162.62;29373;226;63004;-55
2024/01/08 00:36:54;;;;;;;0.70;0.70;;;;;;;-2.97;88.34;97166.34;29373;210;63009;-57
2024/01/08 00:37:25;;;;;;;0.80;0.80;;;;;;;-2.94;88.41;97160.63;29371;259;64009;-57
2024/01/08 00:37:56;;;;;;;0.70;0.70;;;;;;;-2.95;88.30;97169.62;29371;214;64013;-56
2024/01/08 00:38:27;;;;;;;0.70;0.70;;;;;;;-2.95;88.05;97161.66;29371;228;64008;-57
2024/01/08 00:38:59;;;;;;;0.70;0.70;;;;;;;-2.96;87.95;97162.66;29371;256;64014;-57
2024/01/08 00:39:30;;;;;;;0.70;0.70;;;;;;;-2.95;87.54;97153.69;29373;219;63005;-55
2024/01/08 00:40:04;;;;;;;0.70;0.70;;;;;;;-2.98;86.11;97154.09;29373;205;63009;-57
2024/01/08 00:40:35;;;;;;;0.70;0.70;;;;;;;-2.90;85.66;97156.56;29373;204;63005;-57
2024/01/08 00:41:07;;;;;;;0.70;0.70;;;;;;;-2.94;84.00;97144.69;29373;203;63009;-57
2024/01/08 00:41:38;;;;;;;0.70;0.70;;;;;;;-2.94;84.64;97154.50;29373;215;63015;-58
2024/01/08 00:42:13;;;;;;;0.70;0.70;;;;;;;-2.90;84.16;97150.44;29373;202;63009;-57
2024/01/08 00:42:44;;;;;;;0.80;0.80;;;;;;;-2.93;83.96;97151.66;29373;235;63009;-57
2024/01/08 00:43:15;;;;;;;0.70;0.70;;;;;;;-2.93;84.22;97156.13;29373;196;63009;-56
2024/01/08 00:43:47;;;;;;;0.70;0.70;;;;;;;-2.95;84.68;97153.69;29371;202;64009;-57
2024/01/08 00:44:18;;;;;;;0.70;0.70;;;;;;;-3.00;84.05;97150.81;29371;239;64013;-56
2024/01/08 00:44:49;;;;;;;0.70;0.70;;;;;;;-3.04;83.57;97154.88;29373;244;63004;-57
2024/01/08 00:45:21;;;;;;;0.70;0.70;;;;;;;-3.08;83.51;97161.59;29373;211;63009;-57
2024/01/08 00:45:52;;;;;;;0.70;0.70;;;;;;;-3.12;84.30;97147.12;29373;231;63004;-57
2024/01/08 00:46:24;;;;;;;0.95;0.95;;;;;;;-3.12;84.15;97152.44;29373;220;63009;-56
2024/01/08 00:46:55;;;;;;;0.70;0.70;;;;;;;-3.14;84.62;97155.28;29373;210;63005;-57
2024/01/08 00:47:26;;;;;;;0.70;0.70;;;;;;;-3.12;84.69;97155.09;29373;235;63009;-57
2024/01/08 00:47:57;;;;;;;0.70;0.70;;;;;;;-3.11;84.98;97148.72;29373;255;63005;-57
2024/01/08 00:48:29;;;;;;;0.70;0.70;;;;;;;-3.09;84.78;97147.50;29373;247;63009;-57
2024/01/08 00:49:00;;;;;;;0.80;0.80;;;;;;;-3.08;84.98;97148.31;29373;210;63005;-57
2024/01/08 00:49:32;;;;;;;0.80;0.80;;;;;;;-3.08;85.41;97153.62;29371;206;64013;-57
2024/01/08 00:50:05;;;;;;;0.70;0.70;;;;;;;-3.06;85.90;97156.91;29373;263;63005;-57
2024/01/08 00:50:36;;;;;;;0.70;0.70;;;;;;;-3.06;86.32;97156.91;29373;288;63009;-57
2024/01/08 00:51:09;;;;;;;0.70;0.70;;;;;;;-3.05;86.79;97143.44;29373;214;63004;-58
2024/01/08 00:51:41;;;;;;;0.70;0.70;;;;;;;-3.03;86.67;97161.81;29373;283;63009;-57
2024/01/08 00:52:13;;;;;;;0.70;0.70;;;;;;;-3.00;86.16;97161.44;29373;205;63004;-57
2024/01/08 00:52:44;;;;;;;0.70;0.70;;;;;;;-3.01;83.68;97149.16;29373;206;63024;-56
2024/01/08 00:53:16;;;;;;;0.70;0.70;;;;;;;-2.98;83.96;97151.44;29373;251;63004;-57
2024/01/08 00:53:47;;;;;;;0.70;0.70;;;;;;;-2.96;84.41;97154.69;29371;202;64013;-57
2024/01/08 00:54:19;;;;;;;0.70;0.70;;;;;;;-2.96;85.18;97152.03;29373;207;63005;-56
2024/01/08 00:54:50;;;;;;;0.70;0.70;;;;;;;-2.94;85.06;97157.97;29373;213;63005;-57
2024/01/08 00:55:21;;;;;;;0.80;0.80;;;;;;;-2.90;84.01;97150.44;29373;205;63005;-57
2024/01/08 00:55:52;;;;;;;0.75;0.75;;;;;;;-2.89;83.39;97158.19;29373;203;63009;-56
2024/01/08 00:56:23;;;;;;;0.70;0.70;;;;;;;-2.95;82.19;97148.38;29373;218;63005;-57
2024/01/08 00:56:56;;;;;;;0.80;0.80;;;;;;;-2.96;83.26;97149.38;29371;244;64013;-57
2024/01/08 00:57:27;;;;;;;0.80;0.80;;;;;;;-2.94;83.43;97160.63;29373;215;63005;-57
2024/01/08 00:57:59;;;;;;;0.70;0.70;;;;;;;-2.96;83.40;97156.53;29373;229;63009;-56
2024/01/08 00:58:30;;;;;;;0.70;0.70;;;;;;;-2.99;82.47;97147.12;29373;240;63004;-57
2024/01/08 00:59:02;;;;;;;0.73;0.73;;;;;;;-2.96;82.62;97161.84;29372;249;63009;-57
2024/01/08 00:59:33;;;;;;;0.70;0.70;;;;;;;-2.94;82.35;97152.66;29371;199;64009;-57
2024/01/08 01:00:06;;;;;;;0.70;0.70;;;;;;;-2.87;82.74;97150.84;29373;205;63009;-57
2024/01/08 01:00:37;;;;;;;0.70;0.70;;;;;;;-2.92;80.20;97147.97;29373;244;63004;-57
2024/01/08 01:01:10;;;;;;;0.70;0.70;;;;;;;-2.91;80.76;97154.91;29373;257;63008;-57
2024/01/08 01:01:41;;;;;;;0.70;0.70;;;;;;;-2.91;81.05;97149.59;29373;198;63005;-57
2024/01/08 01:02:12;;;;;;;0.70;0.70;;;;;;;-2.93;81.65;97156.97;29373;244;63009;-57
2024/01/08 01:02:43;;;;;;;0.80;0.80;;;;;;;-2.96;81.95;97149.38;29371;240;64009;-58
2024/01/08 01:03:16;;;;;;;0.70;0.70;;;;;;;-2.99;82.42;97157.75;29373;228;63009;-57
2024/01/08 01:03:47;;;;;;;0.80;0.80;;;;;;;-3.02;82.91;97158.16;29373;205;63005;-57
2024/01/08 01:04:18;;;;;;;0.70;0.70;;;;;;;-3.04;84.09;97168.16;29373;204;63009;-57
2024/01/08 01:04:53;;;;;;;0.80;0.80;;;;;;;-3.07;84.43;97164.06;29373;219;63005;-57
2024/01/08 01:05:24;;;;;;;0.70;0.70;;;;;;;-3.10;84.47;97166.28;29373;206;63009;-56
2024/01/08 01:05:57;;;;;;;0.70;0.70;;;;;;;-3.13;84.90;97164.06;29373;211;63004;-57
2024/01/08 01:06:28;;;;;;;0.70;0.70;;;;;;;-3.10;85.74;97167.09;29373;223;63009;-57
2024/01/08 01:06:59;;;;;;;0.90;0.90;;;;;;;-2.99;85.01;97163.06;29373;249;63004;-56
2024/01/08 01:07:31;;;;;;;0.70;0.70;;;;;;;-2.93;83.92;97162.25;29371;226;64013;-57
2024/01/08 01:08:05;;;;;;;0.70;0.70;;;;;;;-2.92;84.13;97171.88;29373;231;63004;-58
2024/01/08 01:08:36;;;;;;;0.70;0.70;;;;;;;-2.95;83.12;97156.34;29373;203;63008;-56
2024/01/08 01:09:08;;;;;;;0.80;0.80;;;;;;;-3.00;84.19;97158.78;29373;234;63005;-57
2024/01/08 01:09:39;;;;;;;0.70;0.70;;;;;;;-3.01;84.38;97169.59;29373;223;63009;-55
2024/01/08 01:10:10;;;;;;;0.80;0.80;;;;;;;-3.03;84.91;97167.13;29373;225;63005;-58
2024/01/08 01:10:42;;;;;;;0.80;0.80;;;;;;;-3.03;84.60;97161.81;29373;223;63020;-57
2024/01/08 01:11:15;;;;;;;0.70;0.70;;;;;;;-3.03;84.87;97167.94;29373;240;63007;-57
2024/01/08 01:11:46;;;;;;;0.80;0.80;;;;;;;-3.00;85.34;97163.25;29373;256;63009;-57
2024/01/08 01:12:21;;;;;;;0.80;0.80;;;;;;;-3.00;84.89;97166.75;29373;242;63005;-57
2024/01/08 01:12:52;;;;;;;0.70;0.70;;;;;;;-2.99;85.05;97168.38;29371;253;64013;-57
2024/01/08 01:13:23;;;;;;;0.70;0.70;;;;;;;-2.98;83.94;97158.56;29373;219;63011;-57
2024/01/08 01:13:54;;;;;;;0.70;0.70;;;;;;;-3.03;83.63;97162.62;29371;294;64013;-56
2024/01/08 01:14:26;;;;;;;0.70;0.70;;;;;;;-3.03;84.14;97159.16;29373;218;63004;-56
2024/01/08 01:14:57;;;;;;;0.70;0.70;;;;;;;-3.03;84.62;97167.94;29373;235;63009;-57
2024/01/08 01:15:28;;;;;;;0.70;0.70;;;;;;;-3.02;85.15;97168.78;29373;218;63004;-57
2024/01/08 01:15:59;;;;;;;0.70;0.70;;;;;;;-3.04;85.88;97168.97;29373;263;63024;-57
2024/01/08 01:16:32;;;;;;;0.70;0.70;;;;;;;-2.95;85.22;97164.31;29373;277;63004;-58
2024/01/08 01:17:04;;;;;;;0.80;0.80;;;;;;;-2.93;84.19;97167.56;29373;241;63009;-56
2024/01/08 01:17:38;;;;;;;0.80;0.80;;;;;;;-2.94;83.84;97163.28;29373;229;63005;-57
2024/01/08 01:18:12;;;;;;;0.70;0.70;;;;;;;-2.94;84.03;97160.63;29373;275;63009;-57
2024/01/08 01:18:44;;;;;;;0.70;0.70;;;;;;;-2.95;84.04;97159.00;29371;200;64009;-56
2024/01/08 01:19:15;;;;;;;0.70;0.70;;;;;;;-2.90;84.02;97169.84;29373;212;63009;-56
2024/01/08 01:19:46;;;;;;;0.70;0.70;;;;;;;-2.87;83.88;97164.13;29373;231;63005;-56
2024/01/08 01:20:20;;;;;;;0.70;0.70;;;;;;;-2.85;83.88;97171.88;29371;248;64013;-57
2024/01/08 01:20:51;;;;;;;0.70;0.70;;;;;;;-2.86;83.64;97168.41;29373;215;63004;-57
2024/01/08 01:21:22;;;;;;;0.70;0.70;;;;;;;-2.87;83.59;97163.31;29373;210;63009;-57
2024/01/08 01:21:54;;;;;;;0.70;0.70;;;;;;;-2.88;84.00;97165.13;29373;203;63004;-56
2024/01/08 01:22:25;;;;;;;0.70;0.70;;;;;;;-2.93;82.52;97167.56;29373;255;63009;-56
2024/01/08 01:22:57;;;;;;;0.75;0.75;;;;;;;-2.96;82.66;97161.84;29371;240;64009;-57
2024/01/08 01:23:28;;;;;;;0.70;0.70;;;;;;;-3.01;81.92;97166.94;29373;196;63019;-57
2024/01/08 01:24:00;;;;;;;0.73;0.73;;;;;;;-3.06;82.05;97159.56;29373;202;63004;-57
2024/01/08 01:24:31;;;;;;;0.80;0.80;;;;;;;-3.09;83.10;97159.97;29373;251;63009;-57
2024/01/08 01:25:03;;;;;;;0.85;0.85;;;;;;;-3.08;84.00;97175.69;29372;207;64021;-56
2024/01/08 01:25:34;;;;;;;0.75;0.75;;;;;;;-2.93;82.64;97167.56;29373;225;63009;-57
2024/01/08 01:26:06;;;;;;;0.70;0.70;;;;;;;-2.92;80.44;97163.91;29371;235;64009;-57
2024/01/08 01:26:37;;;;;;;0.70;0.70;;;;;;;-2.95;80.41;97153.69;29373;269;63009;-57
2024/01/08 01:27:08;;;;;;;0.70;0.70;;;;;;;-2.96;81.12;97167.97;29373;223;63005;-56
2024/01/08 01:27:39;;;;;;;0.80;0.80;;;;;;;-2.97;81.82;97176.97;29373;224;63009;-57
2024/01/08 01:28:10;;;;;;;0.70;0.70;;;;;;;-3.01;80.49;97170.41;29373;204;63004;-57
2024/01/08 01:28:42;;;;;;;0.70;0.70;;;;;;;-3.02;81.00;97163.47;29373;206;63009;-57
2024/01/08 01:29:13;;;;;;;0.70;0.70;;;;;;;-3.03;81.98;97167.94;29373;202;63004;-57
2024/01/08 01:29:45;;;;;;;0.70;0.70;;;;;;;-3.04;81.75;97170.81;29373;224;63009;-55
2024/01/08 01:30:16;;;;;;;0.70;0.70;;;;;;;-3.05;82.02;97169.16;29373;266;63004;-57
2024/01/08 01:30:48;;;;;;;0.70;0.70;;;;;;;-3.06;82.15;97172.84;29373;233;63008;-57
2024/01/08 01:31:19;;;;;;;0.70;0.70;;;;;;;-3.03;82.91;97170.59;29371;223;64008;-57
2024/01/08 01:31:50;;;;;;;0.70;0.70;;;;;;;-3.03;81.51;97172.44;29373;205;63009;-57
2024/01/08 01:32:22;;;;;;;0.70;0.70;;;;;;;-3.03;81.88;97167.94;29371;281;64009;-57
2024/01/08 01:32:53;;;;;;;0.70;0.70;;;;;;;-3.03;82.32;97175.09;29373;210;63009;-55
2024/01/08 01:33:24;;;;;;;0.70;0.70;;;;;;;-3.03;82.52;97175.09;29373;262;63010;-57
2024/01/08 01:33:55;;;;;;;0.80;0.80;;;;;;;-3.06;82.28;97172.84;29373;256;63009;-56
2024/01/08 01:34:30;;;;;;;0.73;0.73;;;;;;;-3.08;82.86;97182.84;29373;222;63005;-58
2024/01/08 01:35:03;;;;;;;0.70;0.70;;;;;;;-3.09;81.96;97173.25;29371;223;64013;-56
2024/01/08 01:35:38;;;;;;;0.70;0.70;;;;;;;-3.08;82.35;97175.69;29373;263;63004;-56
2024/01/08 01:36:09;;;;;;;0.70;0.70;;;;;;;-3.06;82.47;97178.16;29373;202;63009;-56
2024/01/08 01:36:40;;;;;;;0.70;0.70;;;;;;;-3.04;82.68;97170.81;29373;221;63003;-56
2024/01/08 01:37:13;;;;;;;0.80;0.80;;;;;;;-3.01;82.74;97181.03;29371;198;64013;-57
2024/01/08 01:37:44;;;;;;;0.70;0.70;;;;;;;-3.00;83.13;97179.19;29371;196;64008;-57
2024/01/08 01:38:21;;;;;;;0.70;0.70;;;;;;;-2.87;82.11;97180.06;29373;255;63008;-56
2024/01/08 01:38:53;;;;;;;0.70;0.70;;;;;;;-2.85;81.97;97185.97;29373;224;63015;-56
2024/01/08 01:39:24;;;;;;;0.70;0.70;;;;;;;-2.85;80.96;97171.88;29373;202;63009;-56
2024/01/08 01:39:57;;;;;;;0.70;0.70;;;;;;;-2.91;80.72;97165.53;29373;252;63005;-56
2024/01/08 01:40:28;;;;;;;0.70;0.70;;;;;;;-2.93;81.08;97175.53;29373;220;63027;-56
2024/01/08 01:40:59;;;;;;;0.70;0.70;;;;;;;-2.95;81.21;97169.62;29373;232;63005;-57
2024/01/08 01:41:32;;;;;;;0.70;0.70;;;;;;;-2.98;81.30;97175.31;29373;233;63025;-56
2024/01/08 01:42:03;;;;;;;0.70;0.70;;;;;;;-2.96;81.66;97172.47;29373;208;63005;-56
2024/01/08 01:42:36;;;;;;;0.70;0.70;;;;;;;-2.99;80.98;97172.87;29371;273;64013;-57
2024/01/08 01:43:20;;;;;;;0.70;0.70;;;;;;;-3.01;81.69;97169.59;29373;215;63004;-56
2024/01/08 01:43:51;;;;;;;0.70;0.70;;;;;;;-3.02;81.93;97179.38;29373;198;63009;-57
2024/01/08 01:44:22;;;;;;;0.70;0.70;;;;;;;-3.02;82.49;97174.06;29371;222;64027;-56
2024/01/08 01:44:54;;;;;;;0.70;0.70;;;;;;;-3.02;83.00;97179.38;29373;196;63009;-56
2024/01/08 01:45:25;;;;;;;0.70;0.70;;;;;;;-2.97;83.65;97171.66;29373;202;63004;-57
2024/01/08 01:46:03;;;;;;;0.70;0.70;;;;;;;-2.94;83.33;97176.56;29373;219;63009;-57
2024/01/08 01:46:46;;;;;;;0.70;0.70;;;;;;;-2.91;83.43;97176.16;29373;267;63005;-57
2024/01/08 01:47:18;;;;;;;0.70;0.70;;;;;;;-2.88;83.07;97175.75;29373;247;63009;-57
2024/01/08 01:47:54;;;;;;;0.70;0.70;;;;;;;-2.85;82.11;97175.34;29371;197;64009;-57
2024/01/08 01:48:27;;;;;;;0.70;0.70;;;;;;;-2.86;81.71;97173.72;29373;298;63021;-56
2024/01/08 01:48:58;;;;;;;0.70;0.70;;;;;;;-2.87;81.57;97171.28;29373;223;63005;-56
2024/01/08 01:49:30;;;;;;;0.70;0.70;;;;;;;-2.89;81.96;97179.44;29373;275;63009;-57
2024/01/08 01:50:03;;;;;;;0.70;0.70;;;;;;;-2.92;82.36;97177.19;29373;223;63005;-57
2024/01/08 01:50:37;;;;;;;0.70;0.70;;;;;;;-2.90;82.96;97187.59;29371;210;64013;-57
2024/01/08 01:51:09;;;;;;;0.70;0.70;;;;;;;-2.86;82.96;97172.91;29373;333;63004;-57
2024/01/08 01:51:42;;;;;;;0.70;0.70;;;;;;;-2.81;81.46;97170.47;29373;307;63025;-57
2024/01/08 01:52:14;;;;;;;0.70;0.70;;;;;;;-2.84;81.51;97182.31;29373;213;63004;-57
2024/01/08 01:52:45;;;;;;;0.80;0.80;;;;;;;-2.82;79.32;97164.34;29373;289;63004;-57
2024/01/08 01:53:20;;;;;;;0.70;0.70;;;;;;;-2.81;79.06;97165.16;29373;202;63004;-56
2024/01/08 01:53:52;;;;;;;0.80;0.80;;;;;;;-2.82;79.09;97159.03;29373;315;63009;-57
2024/01/08 01:54:25;;;;;;;0.70;0.70;;;;;;;-2.81;79.28;97160.66;29373;229;63005;-57
2024/01/08 01:54:56;;;;;;;0.60;0.60;;;;;;;-2.81;79.31;97167.81;29371;207;64014;-57
2024/01/08 01:55:28;;;;;;;0.70;0.70;;;;;;;-2.84;78.87;97166.37;29373;198;63005;-57
2024/01/08 01:56:00;;;;;;;0.70;0.70;;;;;;;-2.87;79.06;97161.47;29373;240;63027;-56
2024/01/08 01:56:32;;;;;;;0.70;0.70;;;;;;;-2.88;79.57;97165.13;29373;213;63005;-57
2024/01/08 01:57:05;;;;;;;0.70;0.70;;;;;;;-2.92;79.92;97171.88;29373;255;63009;-56
2024/01/08 01:57:37;;;;;;;0.70;0.70;;;;;;;-2.93;80.33;97174.72;29373;199;63005;-57
2024/01/08 01:58:12;;;;;;;0.70;0.70;;;;;;;-2.99;80.04;97171.03;29373;245;63009;-57
2024/01/08 01:58:46;;;;;;;0.70;0.70;;;;;;;-3.07;80.64;97177.34;29371;255;64009;-56
2024/01/08 01:59:18;;;;;;;0.70;0.70;;;;;;;-3.08;81.16;97174.88;29373;247;63009;-57
2024/01/08 01:59:50;;;;;;;0.70;0.70;;;;;;;-3.14;79.98;97170.38;29372;216;63004;-56
2024/01/08 02:00:22;;;;;;;1.27;1.27;;;;;;;-3.16;80.17;97180.37;29373;211;63024;-56
2024/01/08 02:00:54;;;;;;;0.70;0.70;;;;;;;-3.14;80.87;97175.69;29373;218;63004;-56
2024/01/08 02:01:26;;;;;;;0.80;0.80;;;;;;;-3.08;81.43;97180.19;29373;241;63009;-56
2024/01/08 02:02:04;;;;;;;0.70;0.70;;;;;;;-3.04;80.86;97179.59;29373;300;63005;-56
2024/01/08 02:02:36;;;;;;;0.70;0.70;;;;;;;-2.98;80.01;97170.00;29371;203;64014;-56
2024/01/08 02:03:08;;;;;;;0.80;0.80;;;;;;;-2.97;81.21;97186.75;29373;211;63005;-56
2024/01/08 02:03:40;;;;;;;0.70;0.70;;;;;;;-2.96;81.28;97178.59;29373;246;63017;-57
2024/01/08 02:04:16;;;;;;;0.70;0.70;;;;;;;-2.90;80.39;97169.84;29373;214;63005;-57
2024/01/08 02:04:47;;;;;;;0.70;0.70;;;;;;;-2.90;80.33;97177.78;29373;213;63023;-57
2024/01/08 02:05:20;;;;;;;0.70;0.70;;;;;;;-2.97;80.10;97166.34;29373;230;63007;-56
2024/01/08 02:05:51;;;;;;;0.70;0.70;;;;;;;-3.01;80.96;97175.72;29371;202;64013;-56
2024/01/08 02:06:27;;;;;;;0.70;0.70;;;;;;;-3.05;81.30;97177.12;29373;211;63004;-55
2024/01/08 02:07:00;;;;;;;0.70;0.70;;;;;;;-3.06;81.97;97175.50;29373;207;63009;-56
2024/01/08 02:07:32;;;;;;;0.70;0.70;;;;;;;-3.08;82.85;97190.81;29373;231;63004;-57
2024/01/08 02:08:06;;;;;;;0.70;0.70;;;;;;;-3.09;83.40;97186.50;29373;213;63008;-57
2024/01/08 02:08:38;;;;;;;0.70;0.70;;;;;;;-3.10;83.49;97192.84;29373;213;63005;-56
2024/01/08 02:09:10;;;;;;;0.70;0.70;;;;;;;-3.02;83.70;97179.38;29373;245;63009;-56
2024/01/08 02:09:41;;;;;;;0.80;0.80;;;;;;;-2.95;82.52;97174.91;29373;228;63018;-57
2024/01/08 02:10:13;;;;;;;0.70;0.70;;;;;;;-2.90;81.90;97175.16;29371;235;64014;-57
2024/01/08 02:10:44;;;;;;;0.70;0.70;;;;;;;-2.92;81.60;97174.53;29373;232;63010;-56
2024/01/08 02:11:16;;;;;;;0.70;0.70;;;;;;;-2.93;81.74;97178.19;29373;205;63009;-56
2024/01/08 02:11:47;;;;;;;0.70;0.70;;;;;;;-2.94;81.72;97179.22;29373;197;63005;-56
2024/01/08 02:12:20;;;;;;;0.70;0.70;;;;;;;-2.97;82.06;97179.59;29373;203;63009;-56
2024/01/08 02:12:51;;;;;;;0.70;0.70;;;;;;;-2.99;82.35;97179.00;29373;197;63004;-56
2024/01/08 02:13:22;;;;;;;0.70;0.70;;;;;;;-2.97;82.94;97174.31;29373;196;63009;-57
2024/01/08 02:13:54;;;;;;;0.70;0.70;;;;;;;-2.94;83.45;97179.22;29373;210;63012;-56
2024/01/08 02:14:25;;;;;;;0.70;0.70;;;;;;;-2.93;83.31;97174.72;29373;221;63018;-57
2024/01/08 02:14:56;;;;;;;0.70;0.70;;;;;;;-2.91;83.31;97176.16;29371;199;64009;-56
2024/01/08 02:15:27;;;;;;;0.70;0.70;;;;;;;-2.89;82.51;97168.00;29373;224;63008;-57
2024/01/08 02:16:01;;;;;;;0.70;0.70;;;;;;;-2.88;82.28;97165.13;29373;248;63004;-57
2024/01/08 02:16:34;;;;;;;0.85;0.85;;;;;;;-2.81;82.07;97165.97;29373;270;63009;-58
2024/01/08 02:17:08;;;;;;;0.70;0.70;;;;;;;-2.83;79.92;97162.69;29371;225;64009;-57
2024/01/08 02:17:39;;;;;;;0.70;0.70;;;;;;;-2.86;79.83;97165.75;29373;258;63009;-56
2024/01/08 02:18:12;;;;;;;0.70;0.70;;;;;;;-2.88;79.96;97159.81;29373;203;63005;-56
2024/01/08 02:18:44;;;;;;;0.80;0.80;;;;;;;-2.89;80.23;97168.00;29373;236;63009;-57
2024/01/08 02:19:15;;;;;;;0.70;0.70;;;;;;;-2.91;80.93;97170.84;29373;204;63005;-57
2024/01/08 02:19:46;;;;;;;0.75;0.75;;;;;;;-2.93;81.50;97166.75;29373;205;63009;-57
2024/01/08 02:20:17;;;;;;;0.70;0.70;;;;;;;-2.94;82.12;97165.94;29373;250;63005;-57
2024/01/08 02:20:49;;;;;;;0.70;0.70;;;;;;;-2.95;82.63;97172.25;29373;256;63009;-56
2024/01/08 02:21:22;;;;;;;0.70;0.70;;;;;;;-2.97;83.35;97169.00;29373;243;63004;-57
2024/01/08 02:21:53;;;;;;;0.70;0.70;;;;;;;-3.02;81.75;97168.78;29373;236;63009;-56
2024/01/08 02:22:25;;;;;;;0.70;0.70;;;;;;;-3.03;81.65;97167.94;29371;228;64009;-57
2024/01/08 02:22:58;;;;;;;0.70;0.70;;;;;;;-3.05;81.82;97155.91;29373;218;63016;-56
2024/01/08 02:23:29;;;;;;;0.70;0.70;;;;;;;-3.05;82.17;97169.16;29373;273;63004;-56
2024/01/08 02:24:01;;;;;;;0.70;0.70;;;;;;;-3.07;83.17;97172.03;29373;223;63009;-56
2024/01/08 02:24:32;;;;;;;0.70;0.70;;;;;;;-3.05;83.62;97170.00;29373;205;63005;-56
2024/01/08 02:25:04;;;;;;;0.70;0.70;;;;;;;-3.04;83.88;97176.13;29373;206;63026;-57
2024/01/08 02:25:36;;;;;;;0.80;0.80;;;;;;;-3.03;84.06;97164.47;29373;227;63005;-57
2024/01/08 02:26:09;;;;;;;0.70;0.70;;;;;;;-3.01;84.65;97173.06;29373;228;63009;-57
2024/01/08 02:26:40;;;;;;;0.70;0.70;;;;;;;-3.01;84.62;97175.72;29373;205;63005;-56
2024/01/08 02:27:11;;;;;;;0.80;0.80;;;;;;;-3.06;84.80;97167.53;29373;258;63009;-57
2024/01/08 02:27:43;;;;;;;0.70;0.70;;;;;;;-3.07;84.83;97176.50;29371;198;64009;-56
2024/01/08 02:28:15;;;;;;;0.70;0.70;;;;;;;-3.07;84.73;97165.91;29373;205;63009;-57
2024/01/08 02:28:46;;;;;;;0.70;0.70;;;;;;;-3.08;83.74;97174.88;29373;224;63004;-57
2024/01/08 02:29:19;;;;;;;0.90;0.90;;;;;;;-2.98;83.00;97159.38;29371;268;64029;-56
2024/01/08 02:29:51;;;;;;;0.70;0.70;;;;;;;-2.94;81.83;97152.66;29373;215;63004;-56
2024/01/08 02:30:23;;;;;;;0.77;0.77;;;;;;;-2.91;81.78;97154.91;29373;207;63008;-56
2024/01/08 02:30:57;;;;;;;0.70;0.70;;;;;;;-2.88;81.71;97154.50;29373;202;63004;-57
2024/01/08 02:31:30;;;;;;;0.70;0.70;;;;;;;-2.84;80.63;97149.63;29373;229;63009;-56
2024/01/08 02:32:07;;;;;;;1.40;1.40;;;;;;;-2.79;80.43;97145.34;29373;224;63005;-57
2024/01/08 02:32:38;;;;;;;0.70;0.70;;;;;;;-2.79;80.09;97153.31;29373;202;63009;-57